PWSweather.com
Personal Weather Stations
Station Observations
SMETHPA
Wilcat Hollow, Upper Marvin Creek, Smethport, PA 16749

Wilcat Hollow, Upper Marvin CreekSmethport, PA 16749

Lat: 41.7178, Lon: -78.5583

Elevation: 1644

Station Type: Davis Vantage Pro 2 Plus

http://www.mckeanweather.com

Latest ConditionsUpdated 7:00:02 PM EDT Wednesday, Oct 16, 2019
Currently Today's Max Today's Min Today's Average
Temperature 44.5°F6.9°C 52.1°F11.2°C 33.2°F0.7°C 44.5°F6.9°C
Dew Point 42.3°F5.7°C 50.2°F10.1°C 31.7°F-0.2°C 43.1°F6.2°C
Winds 1.0 mph SSW1.6 kmh SSW 4.0 mph -6.4 kmh - - 0.8 mph 1.3 kmh
Wind Gusts 3.0 mph4.8 kmh 12.0 mph19.3 kmh - -
Humidity 92% 100% 84% 95%
Pressure 29.63 in1003.4 mb 29.98 in1015.2 mb 29.60 in1002.4 mb -
Precipitation - 0.76 in19.3 mm - -
Hour Temp Dew Point Humidity Winds Wind Gusts Pressure Precip Precip Rate Daily Precip Total
07:00 PM 44.5°F6.9°C 42.3°F5.7°C 92% 1.0 mph SSW1.6 kmh SSW 3.0 mph4.8 kmh 29.63 in1003.4 mb 0.00 in0.0 mm 0.00 in0.0 mm 0.76 in19.3 mm
06:50 PM 44.7°F7.1°C 42.5°F5.8°C 92% 1.0 mph SSW1.6 kmh SSW 6.0 mph9.7 kmh 29.63 in1003.4 mb 0.00 in0.0 mm 0.00 in0.0 mm 0.76 in19.3 mm
06:40 PM 44.9°F7.2°C 42.7°F5.9°C 92% 1.0 mph SW1.6 kmh SW 4.0 mph6.4 kmh 29.63 in1003.4 mb 0.00 in0.0 mm 0.00 in0.0 mm 0.76 in19.3 mm
06:30 PM 45.1°F7.3°C 42.9°F6.1°C 92% 1.0 mph WSW1.6 kmh WSW 3.0 mph4.8 kmh 29.63 in1003.4 mb 0.00 in0.0 mm 0.00 in0.0 mm 0.76 in19.3 mm
06:20 PM 45.3°F7.4°C 42.8°F6.0°C 91% 1.0 mph WSW1.6 kmh WSW 9.0 mph14.5 kmh 29.63 in1003.4 mb 0.00 in0.0 mm 0.00 in0.0 mm 0.76 in19.3 mm
06:10 PM 45.5°F7.5°C 43.0°F6.1°C 91% 2.0 mph WSW3.2 kmh WSW 9.0 mph14.5 kmh 29.63 in1003.4 mb 0.00 in0.0 mm 0.00 in0.0 mm 0.76 in19.3 mm
06:00 PM 45.7°F7.6°C 43.2°F6.2°C 91% 1.0 mph SW1.6 kmh SW 6.0 mph9.7 kmh 29.63 in1003.4 mb 0.00 in0.0 mm 0.00 in0.0 mm 0.76 in19.3 mm
05:50 PM 46.1°F7.8°C 43.6°F6.4°C 91% 2.0 mph WSW3.2 kmh WSW 4.0 mph6.4 kmh 29.62 in1003.0 mb 0.00 in0.0 mm 0.00 in0.0 mm 0.76 in19.3 mm
05:40 PM 46.3°F7.9°C 44.1°F6.7°C 92% 3.0 mph SW4.8 kmh SW 9.0 mph14.5 kmh 29.62 in1003.0 mb 0.00 in0.0 mm 0.00 in0.0 mm 0.76 in19.3 mm
05:30 PM 46.7°F8.2°C 45.1°F7.3°C 94% 1.0 mph SSW1.6 kmh SSW 9.0 mph14.5 kmh 29.62 in1003.0 mb 0.00 in0.0 mm 0.00 in0.0 mm 0.76 in19.3 mm
05:20 PM 47.1°F8.4°C 45.7°F7.6°C 95% 1.0 mph WSW1.6 kmh WSW 3.0 mph4.8 kmh 29.61 in1002.7 mb 0.00 in0.0 mm 0.00 in0.0 mm 0.76 in19.3 mm
05:10 PM 47.2°F8.4°C 45.8°F7.7°C 95% 1.0 mph WSW1.6 kmh WSW 7.0 mph11.3 kmh 29.61 in1002.7 mb 0.00 in0.0 mm 0.00 in0.0 mm 0.76 in19.3 mm
05:00 PM 47.4°F8.6°C 46.0°F7.8°C 95% 2.0 mph WSW3.2 kmh WSW 6.0 mph9.7 kmh 29.61 in1002.7 mb 0.00 in0.0 mm 0.00 in0.0 mm 0.76 in19.3 mm
04:50 PM 47.5°F8.6°C 46.1°F7.8°C 95% 1.0 mph WSW1.6 kmh WSW 9.0 mph14.5 kmh 29.61 in1002.7 mb 0.00 in0.0 mm 0.00 in0.0 mm 0.76 in19.3 mm
04:40 PM 47.6°F8.7°C 46.2°F7.9°C 95% 1.0 mph WSW1.6 kmh WSW 4.0 mph6.4 kmh 29.61 in1002.7 mb 0.00 in0.0 mm 0.00 in0.0 mm 0.76 in19.3 mm
04:30 PM 47.6°F8.7°C 46.5°F8.1°C 96% Calm Calm 2.0 mph3.2 kmh 29.62 in1003.0 mb 0.00 in0.0 mm 0.00 in0.0 mm 0.76 in19.3 mm
04:20 PM 47.6°F8.7°C 46.5°F8.1°C 96% Calm Calm 3.0 mph4.8 kmh 29.61 in1002.7 mb 0.00 in0.0 mm 0.00 in0.0 mm 0.76 in19.3 mm
04:10 PM 47.5°F8.6°C 46.4°F8.0°C 96% Calm Calm 3.0 mph4.8 kmh 29.61 in1002.7 mb 0.00 in0.0 mm 0.00 in0.0 mm 0.76 in19.3 mm
04:00 PM 47.5°F8.6°C 46.1°F7.8°C 95% Calm Calm 4.0 mph6.4 kmh 29.62 in1003.0 mb 0.01 in0.3 mm 0.00 in0.0 mm 0.76 in19.3 mm
03:50 PM 47.7°F8.7°C 46.6°F8.1°C 96% 1.0 mph WSW1.6 kmh WSW 4.0 mph6.4 kmh 29.62 in1003.0 mb 0.01 in0.3 mm 0.00 in0.0 mm 0.76 in19.3 mm
03:40 PM 48.0°F8.9°C 46.9°F8.3°C 96% Calm Calm 5.0 mph8.0 kmh 29.62 in1003.0 mb 0.01 in0.3 mm 0.00 in0.0 mm 0.76 in19.3 mm
03:30 PM 48.2°F9.0°C 47.1°F8.4°C 96% Calm Calm 1.0 mph1.6 kmh 29.62 in1003.0 mb 0.02 in0.5 mm 0.00 in0.0 mm 0.76 in19.3 mm
03:20 PM 48.1°F8.9°C 47.0°F8.3°C 96% Calm Calm 3.0 mph4.8 kmh 29.61 in1002.7 mb 0.02 in0.5 mm 0.00 in0.0 mm 0.76 in19.3 mm
03:10 PM 48.1°F8.9°C 47.0°F8.3°C 96% Calm Calm -- 29.60 in1002.4 mb 0.03 in0.8 mm 0.00 in0.0 mm 0.76 in19.3 mm
03:00 PM 48.0°F8.9°C 46.9°F8.3°C 96% Calm Calm -- 29.61 in1002.7 mb 0.03 in0.8 mm 0.00 in0.0 mm 0.75 in19.1 mm
02:50 PM 47.9°F8.8°C 46.8°F8.2°C 96% Calm Calm 1.0 mph1.6 kmh 29.62 in1003.0 mb 0.03 in0.8 mm 0.00 in0.0 mm 0.75 in19.1 mm
02:40 PM 47.8°F8.8°C 46.7°F8.2°C 96% Calm Calm -- 29.62 in1003.0 mb 0.04 in1.0 mm 0.00 in0.0 mm 0.75 in19.1 mm
02:30 PM 47.8°F8.8°C 46.7°F8.2°C 96% Calm Calm 1.0 mph1.6 kmh 29.63 in1003.4 mb 0.04 in1.0 mm 0.00 in0.0 mm 0.74 in18.8 mm
02:20 PM 47.8°F8.8°C 46.7°F8.2°C 96% Calm Calm -- 29.64 in1003.7 mb 0.05 in1.3 mm 0.00 in0.0 mm 0.74 in18.8 mm
02:10 PM 47.8°F8.8°C 46.4°F8.0°C 95% Calm Calm 1.0 mph1.6 kmh 29.64 in1003.7 mb 0.05 in1.3 mm 0.00 in0.0 mm 0.73 in18.5 mm
02:00 PM 47.8°F8.8°C 46.4°F8.0°C 95% Calm Calm -- 29.65 in1004.1 mb 0.08 in2.0 mm 0.00 in0.0 mm 0.72 in18.3 mm
01:50 PM 47.8°F8.8°C 46.4°F8.0°C 95% Calm Calm -- 29.66 in1004.4 mb 0.16 in4.1 mm 0.00 in0.0 mm 0.72 in18.3 mm
01:40 PM 47.7°F8.7°C 46.3°F7.9°C 95% Calm Calm -- 29.67 in1004.7 mb 0.19 in4.8 mm 0.00 in0.0 mm 0.71 in18.0 mm
01:30 PM 47.5°F8.6°C 46.1°F7.8°C 95% Calm Calm -- 29.68 in1005.1 mb 0.21 in5.3 mm 0.00 in0.0 mm 0.70 in17.8 mm
01:20 PM 47.5°F8.6°C 45.9°F7.7°C 94% 1.0 mph WSW1.6 kmh WSW 4.0 mph6.4 kmh 29.68 in1005.1 mb 0.27 in6.9 mm 0.00 in0.0 mm 0.69 in17.5 mm
01:10 PM 47.9°F8.8°C 46.3°F7.9°C 94% Calm Calm 4.0 mph6.4 kmh 29.69 in1005.4 mb 0.27 in6.9 mm 0.18 in4.6 mm 0.67 in17.0 mm
01:00 PM 48.3°F9.1°C 46.7°F8.2°C 94% 1.0 mph WSW1.6 kmh WSW 6.0 mph9.7 kmh 29.69 in1005.4 mb 0.24 in6.1 mm 0.08 in2.0 mm 0.63 in16.0 mm
12:50 PM 48.8°F9.3°C 47.2°F8.4°C 94% 1.0 mph WSW1.6 kmh WSW 3.0 mph4.8 kmh 29.69 in1005.4 mb 0.17 in4.3 mm 0.18 in4.6 mm 0.56 in14.2 mm
12:40 PM 49.4°F9.7°C 47.7°F8.7°C 94% 3.0 mph WSW4.8 kmh WSW 5.0 mph8.0 kmh 29.69 in1005.4 mb 0.14 in3.6 mm 0.00 in0.0 mm 0.52 in13.2 mm
12:30 PM 50.4°F10.2°C 49.0°F9.4°C 95% 2.0 mph WSW3.2 kmh WSW 11.0 mph17.7 kmh 29.70 in1005.8 mb 0.14 in3.6 mm 0.36 in9.1 mm 0.49 in12.4 mm
12:20 PM 51.3°F10.7°C 50.2°F10.1°C 96% 2.0 mph W3.2 kmh W 9.0 mph14.5 kmh 29.69 in1005.4 mb 0.08 in2.0 mm 0.00 in0.0 mm 0.42 in10.7 mm
12:10 PM 51.3°F10.7°C 50.2°F10.1°C 96% 2.0 mph WSW3.2 kmh WSW 6.0 mph9.7 kmh 29.70 in1005.8 mb 0.08 in2.0 mm 0.00 in0.0 mm 0.40 in10.2 mm
12:00 PM 51.1°F10.6°C 50.0°F10.0°C 96% 2.0 mph W3.2 kmh W 8.0 mph12.9 kmh 29.69 in1005.4 mb 0.10 in2.5 mm 0.00 in0.0 mm 0.39 in9.9 mm
11:50 AM 51.0°F10.6°C 49.9°F9.9°C 96% 2.0 mph W3.2 kmh W 6.0 mph9.7 kmh 29.68 in1005.1 mb 0.14 in3.6 mm 0.00 in0.0 mm 0.39 in9.9 mm
11:40 AM 51.0°F10.6°C 49.9°F9.9°C 96% 2.0 mph W3.2 kmh W 7.0 mph11.3 kmh 29.67 in1004.7 mb 0.17 in4.3 mm 0.00 in0.0 mm 0.37 in9.4 mm
11:30 AM 50.9°F10.5°C 49.8°F9.9°C 96% 2.0 mph WSW3.2 kmh WSW 6.0 mph9.7 kmh 29.67 in1004.7 mb 0.19 in4.8 mm 0.00 in0.0 mm 0.35 in8.9 mm
11:20 AM 50.8°F10.4°C 49.4°F9.7°C 95% 3.0 mph SW4.8 kmh SW 9.0 mph14.5 kmh 29.67 in1004.7 mb 0.21 in5.3 mm 0.00 in0.0 mm 0.33 in8.4 mm
11:10 AM 50.7°F10.4°C 49.3°F9.6°C 95% 3.0 mph W4.8 kmh W 9.0 mph14.5 kmh 29.68 in1005.1 mb 0.22 in5.6 mm 0.12 in3.0 mm 0.32 in8.1 mm
11:00 AM 50.7°F10.4°C 49.3°F9.6°C 95% 2.0 mph W3.2 kmh W 9.0 mph14.5 kmh 29.69 in1005.4 mb 0.20 in5.1 mm 0.05 in1.3 mm 0.29 in7.4 mm
10:50 AM 50.7°F10.4°C 49.3°F9.6°C 95% 2.0 mph WSW3.2 kmh WSW 6.0 mph9.7 kmh 29.69 in1005.4 mb 0.16 in4.1 mm 0.30 in7.6 mm 0.25 in6.4 mm
10:40 AM 50.7°F10.4°C 49.0°F9.4°C 94% 3.0 mph WSW4.8 kmh WSW 8.0 mph12.9 kmh 29.69 in1005.4 mb 0.11 in2.8 mm 0.24 in6.1 mm 0.20 in5.1 mm
10:30 AM 50.7°F10.4°C 49.0°F9.4°C 94% 4.0 mph WSW6.4 kmh WSW 12.0 mph19.3 kmh 29.69 in1005.4 mb 0.07 in1.8 mm 0.12 in3.0 mm 0.15 in3.8 mm
10:20 AM 50.8°F10.4°C 49.1°F9.5°C 94% 3.0 mph W4.8 kmh W 11.0 mph17.7 kmh 29.69 in1005.4 mb 0.05 in1.3 mm 0.00 in0.0 mm 0.12 in3.0 mm
10:10 AM 50.9°F10.5°C 49.2°F9.6°C 94% 2.0 mph W3.2 kmh W 5.0 mph8.0 kmh 29.70 in1005.8 mb 0.05 in1.3 mm 0.00 in0.0 mm 0.10 in2.5 mm
10:00 AM 50.9°F10.5°C 49.2°F9.6°C 94% 2.0 mph W3.2 kmh W 6.0 mph9.7 kmh 29.69 in1005.4 mb 0.06 in1.5 mm 0.00 in0.0 mm 0.09 in2.3 mm
09:50 AM 50.9°F10.5°C 49.2°F9.6°C 94% 2.0 mph WSW3.2 kmh WSW 6.0 mph9.7 kmh 29.70 in1005.8 mb 0.09 in2.3 mm 0.00 in0.0 mm 0.09 in2.3 mm
09:40 AM 50.8°F10.4°C 48.8°F9.3°C 93% 1.0 mph WSW1.6 kmh WSW 5.0 mph8.0 kmh 29.70 in1005.8 mb 0.09 in2.3 mm 0.06 in1.5 mm 0.09 in2.3 mm
09:30 AM 50.9°F10.5°C 48.7°F9.3°C 92% 1.0 mph WSW1.6 kmh WSW 6.0 mph9.7 kmh 29.71 in1006.1 mb 0.08 in2.0 mm 0.06 in1.5 mm 0.08 in2.0 mm
09:20 AM 51.2°F10.7°C 48.7°F9.3°C 91% 1.0 mph WSW1.6 kmh WSW 4.0 mph6.4 kmh 29.72 in1006.4 mb 0.07 in1.8 mm 0.12 in3.0 mm 0.07 in1.8 mm
09:10 AM 51.5°F10.8°C 48.4°F9.1°C 89% 1.0 mph WSW1.6 kmh WSW 6.0 mph9.7 kmh 29.73 in1006.8 mb 0.05 in1.3 mm 0.12 in3.0 mm 0.05 in1.3 mm
09:00 AM 52.1°F11.2°C 48.3°F9.1°C 87% 1.0 mph NW1.6 kmh NW 7.0 mph11.3 kmh 29.74 in1007.1 mb 0.03 in0.8 mm 0.04 in1.0 mm 0.03 in0.8 mm
08:50 AM 52.1°F11.2°C 47.4°F8.6°C 84% 2.0 mph NNW3.2 kmh NNW 5.0 mph8.0 kmh 29.71 in1006.1 mb 0.00 in0.0 mm 0.00 in0.0 mm 0.00 in0.0 mm
08:40 AM 52.0°F11.1°C 47.3°F8.5°C 84% 2.0 mph NW3.2 kmh NW 8.0 mph12.9 kmh 29.71 in1006.1 mb 0.00 in0.0 mm 0.00 in0.0 mm 0.00 in0.0 mm
08:30 AM 51.6°F10.9°C 47.2°F8.4°C 85% 1.0 mph NW1.6 kmh NW 5.0 mph8.0 kmh 29.72 in1006.4 mb 0.00 in0.0 mm 0.00 in0.0 mm 0.00 in0.0 mm
08:20 AM 51.2°F10.7°C 46.8°F8.2°C 85% 1.0 mph NW1.6 kmh NW 5.0 mph8.0 kmh 29.72 in1006.4 mb 0.00 in0.0 mm 0.00 in0.0 mm 0.00 in0.0 mm
08:10 AM 50.9°F10.5°C 47.2°F8.4°C 87% 2.0 mph NW3.2 kmh NW 4.0 mph6.4 kmh 29.72 in1006.4 mb 0.00 in0.0 mm 0.00 in0.0 mm 0.00 in0.0 mm
08:00 AM 50.7°F10.4°C 47.3°F8.5°C 88% 2.0 mph NW3.2 kmh NW 4.0 mph6.4 kmh 29.73 in1006.8 mb 0.00 in0.0 mm 0.00 in0.0 mm 0.00 in0.0 mm
07:50 AM 50.5°F10.3°C 47.7°F8.7°C 90% 3.0 mph NW4.8 kmh NW 7.0 mph11.3 kmh 29.74 in1007.1 mb 0.00 in0.0 mm 0.00 in0.0 mm 0.00 in0.0 mm
07:40 AM 49.9°F9.9°C 48.0°F8.9°C 93% 2.0 mph NW3.2 kmh NW 7.0 mph11.3 kmh 29.74 in1007.1 mb 0.00 in0.0 mm 0.00 in0.0 mm 0.00 in0.0 mm
07:30 AM 49.3°F9.6°C 48.2°F9.0°C 96% 1.0 mph NW1.6 kmh NW 5.0 mph8.0 kmh 29.75 in1007.5 mb 0.00 in0.0 mm 0.00 in0.0 mm 0.00 in0.0 mm
07:20 AM 48.3°F9.1°C 48.3°F9.1°C 100% 1.0 mph NW1.6 kmh NW 4.0 mph6.4 kmh 29.76 in1007.8 mb 0.00 in0.0 mm 0.00 in0.0 mm 0.00 in0.0 mm
07:10 AM 47.4°F8.6°C 47.1°F8.4°C 99% 2.0 mph NW3.2 kmh NW 6.0 mph9.7 kmh 29.76 in1007.8 mb 0.00 in0.0 mm 0.00 in0.0 mm 0.00 in0.0 mm
07:00 AM 46.7°F8.2°C 46.4°F8.0°C 99% 1.0 mph NW1.6 kmh NW 6.0 mph9.7 kmh 29.77 in1008.1 mb 0.00 in0.0 mm 0.00 in0.0 mm 0.00 in0.0 mm
06:50 AM 46.2°F7.9°C 45.9°F7.7°C 99% 1.0 mph WSW1.6 kmh WSW 6.0 mph9.7 kmh 29.77 in1008.1 mb 0.00 in0.0 mm 0.00 in0.0 mm 0.00 in0.0 mm
06:40 AM 45.6°F7.6°C 45.3°F7.4°C 99% Calm Calm 5.0 mph8.0 kmh 29.78 in1008.5 mb 0.00 in0.0 mm 0.00 in0.0 mm 0.00 in0.0 mm
06:30 AM 44.9°F7.2°C 44.6°F7.0°C 99% Calm Calm 4.0 mph6.4 kmh 29.79 in1008.8 mb 0.00 in0.0 mm 0.00 in0.0 mm 0.00 in0.0 mm
06:20 AM 44.5°F6.9°C 44.2°F6.8°C 99% Calm Calm 3.0 mph4.8 kmh 29.79 in1008.8 mb 0.00 in0.0 mm 0.00 in0.0 mm 0.00 in0.0 mm
06:10 AM 43.8°F6.6°C 43.5°F6.4°C 99% Calm Calm -- 29.80 in1009.1 mb 0.00 in0.0 mm 0.00 in0.0 mm 0.00 in0.0 mm
06:00 AM 43.4°F6.3°C 43.4°F6.3°C 100% Calm Calm 1.0 mph1.6 kmh 29.80 in1009.1 mb 0.00 in0.0 mm 0.00 in0.0 mm 0.00 in0.0 mm
05:50 AM 42.9°F6.1°C 42.9°F6.1°C 100% 1.0 mph WSW1.6 kmh WSW 2.0 mph3.2 kmh 29.81 in1009.5 mb 0.00 in0.0 mm 0.00 in0.0 mm 0.00 in0.0 mm
05:40 AM 42.5°F5.8°C 42.5°F5.8°C 100% Calm Calm 4.0 mph6.4 kmh 29.81 in1009.5 mb 0.00 in0.0 mm 0.00 in0.0 mm 0.00 in0.0 mm
05:30 AM 42.0°F5.6°C 42.0°F5.6°C 100% Calm Calm 1.0 mph1.6 kmh 29.82 in1009.8 mb 0.00 in0.0 mm 0.00 in0.0 mm 0.00 in0.0 mm
05:20 AM 41.6°F5.3°C 41.6°F5.3°C 100% Calm Calm 2.0 mph3.2 kmh 29.83 in1010.2 mb 0.00 in0.0 mm 0.00 in0.0 mm 0.00 in0.0 mm
05:10 AM 41.2°F5.1°C 41.2°F5.1°C 100% Calm Calm -- 29.84 in1010.5 mb 0.00 in0.0 mm 0.00 in0.0 mm 0.00 in0.0 mm
05:00 AM 40.7°F4.8°C 40.7°F4.8°C 100% Calm Calm 2.0 mph3.2 kmh 29.84 in1010.5 mb 0.00 in0.0 mm 0.00 in0.0 mm 0.00 in0.0 mm
04:50 AM 39.8°F4.3°C 39.8°F4.3°C 100% Calm Calm 1.0 mph1.6 kmh 29.85 in1010.8 mb 0.00 in0.0 mm 0.00 in0.0 mm 0.00 in0.0 mm
04:40 AM 39.0°F3.9°C 39.0°F3.9°C 100% Calm Calm 2.0 mph3.2 kmh 29.85 in1010.8 mb 0.00 in0.0 mm 0.00 in0.0 mm 0.00 in0.0 mm
04:30 AM 38.2°F3.4°C 38.2°F3.4°C 100% Calm Calm 2.0 mph3.2 kmh 29.86 in1011.2 mb 0.00 in0.0 mm 0.00 in0.0 mm 0.00 in0.0 mm
04:20 AM 37.5°F3.1°C 37.5°F3.1°C 100% Calm Calm 3.0 mph4.8 kmh 29.87 in1011.5 mb 0.00 in0.0 mm 0.00 in0.0 mm 0.00 in0.0 mm
04:10 AM 36.6°F2.6°C 36.6°F2.6°C 100% Calm Calm 2.0 mph3.2 kmh 29.86 in1011.2 mb 0.00 in0.0 mm 0.00 in0.0 mm 0.00 in0.0 mm
04:00 AM 35.7°F2.1°C 34.9°F1.6°C 97% Calm Calm 1.0 mph1.6 kmh 29.87 in1011.5 mb 0.00 in0.0 mm 0.00 in0.0 mm 0.00 in0.0 mm
03:50 AM 35.0°F1.7°C 34.2°F1.2°C 97% Calm Calm 1.0 mph1.6 kmh 29.88 in1011.9 mb 0.00 in0.0 mm 0.00 in0.0 mm 0.00 in0.0 mm
03:40 AM 34.6°F1.4°C 33.8°F1.0°C 97% Calm Calm 1.0 mph1.6 kmh 29.88 in1011.9 mb 0.00 in0.0 mm 0.00 in0.0 mm 0.00 in0.0 mm
03:30 AM 34.2°F1.2°C 33.4°F0.8°C 97% Calm Calm -- 29.89 in1012.2 mb 0.00 in0.0 mm 0.00 in0.0 mm 0.00 in0.0 mm
03:20 AM 34.0°F1.1°C 33.2°F0.7°C 97% Calm Calm -- 29.89 in1012.2 mb 0.00 in0.0 mm 0.00 in0.0 mm 0.00 in0.0 mm
03:10 AM 33.8°F1.0°C 33.0°F0.6°C 97% Calm Calm 1.0 mph1.6 kmh 29.89 in1012.2 mb 0.00 in0.0 mm 0.00 in0.0 mm 0.00 in0.0 mm
03:00 AM 33.6°F0.9°C 32.6°F0.3°C 96% Calm Calm 1.0 mph1.6 kmh 29.90 in1012.5 mb 0.00 in0.0 mm 0.00 in0.0 mm 0.00 in0.0 mm
02:50 AM 33.4°F0.8°C 32.4°F0.2°C 96% Calm Calm -- 29.91 in1012.9 mb 0.00 in0.0 mm 0.00 in0.0 mm 0.00 in0.0 mm
02:40 AM 33.5°F0.8°C 32.5°F0.3°C 96% Calm Calm 1.0 mph1.6 kmh 29.91 in1012.9 mb 0.00 in0.0 mm 0.00 in0.0 mm 0.00 in0.0 mm
02:30 AM 33.6°F0.9°C 32.6°F0.3°C 96% Calm Calm 2.0 mph3.2 kmh 29.92 in1013.2 mb 0.00 in0.0 mm 0.00 in0.0 mm 0.00 in0.0 mm
02:20 AM 33.7°F0.9°C 32.7°F0.4°C 96% Calm Calm 1.0 mph1.6 kmh 29.92 in1013.2 mb 0.00 in0.0 mm 0.00 in0.0 mm 0.00 in0.0 mm
02:10 AM 33.8°F1.0°C 32.8°F0.4°C 96% Calm Calm 1.0 mph1.6 kmh 29.93 in1013.5 mb 0.00 in0.0 mm 0.00 in0.0 mm 0.00 in0.0 mm
02:00 AM 33.8°F1.0°C 32.8°F0.4°C 96% Calm Calm -- 29.93 in1013.5 mb 0.00 in0.0 mm 0.00 in0.0 mm 0.00 in0.0 mm
01:50 AM 33.8°F1.0°C 32.8°F0.4°C 96% Calm Calm -- 29.94 in1013.9 mb 0.00 in0.0 mm 0.00 in0.0 mm 0.00 in0.0 mm
01:40 AM 33.6°F0.9°C 32.6°F0.3°C 96% Calm Calm 2.0 mph3.2 kmh 29.94 in1013.9 mb 0.00 in0.0 mm 0.00 in0.0 mm 0.00 in0.0 mm
01:30 AM 33.6°F0.9°C 32.3°F0.2°C 95% Calm Calm -- 29.95 in1014.2 mb 0.00 in0.0 mm 0.00 in0.0 mm 0.00 in0.0 mm
01:20 AM 33.6°F0.9°C 32.3°F0.2°C 95% Calm Calm -- 29.95 in1014.2 mb 0.00 in0.0 mm 0.00 in0.0 mm 0.00 in0.0 mm
01:10 AM 33.6°F0.9°C 32.3°F0.2°C 95% Calm Calm -- 29.95 in1014.2 mb 0.00 in0.0 mm 0.00 in0.0 mm 0.00 in0.0 mm
01:00 AM 33.6°F0.9°C 32.3°F0.2°C 95% Calm Calm -- 29.96 in1014.6 mb 0.00 in0.0 mm 0.00 in0.0 mm 0.00 in0.0 mm
12:50 AM 33.4°F0.8°C 32.1°F0.1°C 95% Calm Calm -- 29.96 in1014.6 mb 0.00 in0.0 mm 0.00 in0.0 mm 0.00 in0.0 mm
12:40 AM 33.2°F0.7°C 31.9°F-0.1°C 95% Calm Calm 1.0 mph1.6 kmh 29.97 in1014.9 mb 0.00 in0.0 mm 0.00 in0.0 mm 0.00 in0.0 mm
12:30 AM 33.2°F0.7°C 31.7°F-0.2°C 94% Calm Calm 1.0 mph1.6 kmh 29.97 in1014.9 mb 0.00 in0.0 mm 0.00 in0.0 mm 0.00 in0.0 mm
12:20 AM 33.3°F0.7°C 31.8°F-0.1°C 94% Calm Calm -- 29.97 in1014.9 mb 0.00 in0.0 mm 0.00 in0.0 mm 0.00 in0.0 mm
12:10 AM 33.4°F0.8°C 31.9°F-0.1°C 94% Calm Calm -- 29.98 in1015.2 mb 0.00 in0.0 mm 0.00 in0.0 mm 0.00 in0.0 mm
12:00 AM 33.5°F0.8°C 32.0°F0.0°C 94% Calm Calm 1.0 mph1.6 kmh 29.98 in1015.2 mb 0.00 in0.0 mm 0.00 in0.0 mm 0.00 in0.0 mm